sensor_id;sensor_type;location;lat;lon;timestamp;temperature;humidity
5150;DHT22;2593;52.466;13.436;2023-03-13T00:01:39;6.10;99.90
5150;DHT22;2593;52.466;13.436;2023-03-13T00:04:05;6.20;99.90
5150;DHT22;2593;52.466;13.436;2023-03-13T00:06:33;6.20;99.90
5150;DHT22;2593;52.466;13.436;2023-03-13T00:08:59;6.20;99.90
5150;DHT22;2593;52.466;13.436;2023-03-13T00:11:26;6.20;99.90
5150;DHT22;2593;52.466;13.436;2023-03-13T00:13:56;6.20;99.90
5150;DHT22;2593;52.466;13.436;2023-03-13T00:16:22;6.30;99.90
5150;DHT22;2593;52.466;13.436;2023-03-13T00:18:50;6.30;99.90
5150;DHT22;2593;52.466;13.436;2023-03-13T00:21:18;6.30;99.90
5150;DHT22;2593;52.466;13.436;2023-03-13T00:23:44;6.30;99.90
5150;DHT22;2593;52.466;13.436;2023-03-13T00:26:13;6.40;99.90
5150;DHT22;2593;52.466;13.436;2023-03-13T00:28:39;6.40;99.90
5150;DHT22;2593;52.466;13.436;2023-03-13T00:31:11;6.50;99.90
5150;DHT22;2593;52.466;13.436;2023-03-13T00:33:45;6.50;99.90
5150;DHT22;2593;52.466;13.436;2023-03-13T00:36:17;6.50;99.90
5150;DHT22;2593;52.466;13.436;2023-03-13T00:38:43;6.50;99.90
5150;DHT22;2593;52.466;13.436;2023-03-13T00:41:17;6.60;99.90
5150;DHT22;2593;52.466;13.436;2023-03-13T00:43:44;6.60;99.90
5150;DHT22;2593;52.466;13.436;2023-03-13T00:46:11;6.60;99.90
5150;DHT22;2593;52.466;13.436;2023-03-13T00:48:37;6.60;99.90
5150;DHT22;2593;52.466;13.436;2023-03-13T00:51:04;6.60;99.90
5150;DHT22;2593;52.466;13.436;2023-03-13T00:53:30;6.60;99.90
5150;DHT22;2593;52.466;13.436;2023-03-13T00:56:05;6.50;99.90
5150;DHT22;2593;52.466;13.436;2023-03-13T00:58:34;6.50;99.90
5150;DHT22;2593;52.466;13.436;2023-03-13T01:03:47;6.60;99.90
5150;DHT22;2593;52.466;13.436;2023-03-13T01:06:15;6.50;99.90
5150;DHT22;2593;52.466;13.436;2023-03-13T01:08:41;6.60;99.90
5150;DHT22;2593;52.466;13.436;2023-03-13T01:11:18;6.60;99.90
5150;DHT22;2593;52.466;13.436;2023-03-13T01:13:45;6.60;99.90
5150;DHT22;2593;52.466;13.436;2023-03-13T01:16:12;6.60;99.90
5150;DHT22;2593;52.466;13.436;2023-03-13T01:18:40;6.60;99.90
5150;DHT22;2593;52.466;13.436;2023-03-13T01:21:07;6.60;99.90
5150;DHT22;2593;52.466;13.436;2023-03-13T01:23:32;6.60;99.90
5150;DHT22;2593;52.466;13.436;2023-03-13T01:25:59;6.60;99.90
5150;DHT22;2593;52.466;13.436;2023-03-13T01:28:25;6.60;99.90
5150;DHT22;2593;52.466;13.436;2023-03-13T01:30:52;6.60;99.90
5150;DHT22;2593;52.466;13.436;2023-03-13T01:33:18;6.60;99.90
5150;DHT22;2593;52.466;13.436;2023-03-13T01:35:43;6.60;99.90
5150;DHT22;2593;52.466;13.436;2023-03-13T01:38:10;6.60;99.90
5150;DHT22;2593;52.466;13.436;2023-03-13T01:40:43;6.60;99.90
5150;DHT22;2593;52.466;13.436;2023-03-13T01:43:22;6.60;99.90
5150;DHT22;2593;52.466;13.436;2023-03-13T01:45:58;6.60;99.90
5150;DHT22;2593;52.466;13.436;2023-03-13T01:48:35;6.60;99.90
5150;DHT22;2593;52.466;13.436;2023-03-13T01:51:05;6.60;99.90
5150;DHT22;2593;52.466;13.436;2023-03-13T01:53:33;6.50;99.90
5150;DHT22;2593;52.466;13.436;2023-03-13T01:56:00;6.50;99.90
5150;DHT22;2593;52.466;13.436;2023-03-13T01:58:28;6.50;99.90
5150;DHT22;2593;52.466;13.436;2023-03-13T02:00:55;6.50;99.90
5150;DHT22;2593;52.466;13.436;2023-03-13T02:03:21;6.60;99.90
5150;DHT22;2593;52.466;13.436;2023-03-13T02:05:48;6.60;99.90
5150;DHT22;2593;52.466;13.436;2023-03-13T02:08:20;6.60;99.90
5150;DHT22;2593;52.466;13.436;2023-03-13T02:10:52;6.60;99.90
5150;DHT22;2593;52.466;13.436;2023-03-13T02:13:19;6.60;99.90
5150;DHT22;2593;52.466;13.436;2023-03-13T02:15:45;6.50;99.90
5150;DHT22;2593;52.466;13.436;2023-03-13T02:18:12;6.50;99.90
5150;DHT22;2593;52.466;13.436;2023-03-13T02:20:38;6.50;99.90
5150;DHT22;2593;52.466;13.436;2023-03-13T02:23:33;6.50;99.90
5150;DHT22;2593;52.466;13.436;2023-03-13T02:26:00;6.50;99.90
5150;DHT22;2593;52.466;13.436;2023-03-13T02:28:36;6.50;99.90
5150;DHT22;2593;52.466;13.436;2023-03-13T02:31:04;6.40;99.90
5150;DHT22;2593;52.466;13.436;2023-03-13T02:33:35;6.40;99.90
5150;DHT22;2593;52.466;13.436;2023-03-13T02:36:01;6.40;99.90
5150;DHT22;2593;52.466;13.436;2023-03-13T02:38:29;6.40;99.90
5150;DHT22;2593;52.466;13.436;2023-03-13T02:40:57;6.40;99.90
5150;DHT22;2593;52.466;13.436;2023-03-13T02:43:36;6.40;99.90
5150;DHT22;2593;52.466;13.436;2023-03-13T02:46:19;6.40;99.90
5150;DHT22;2593;52.466;13.436;2023-03-13T02:48:54;6.40;99.90
5150;DHT22;2593;52.466;13.436;2023-03-13T02:51:34;6.40;99.90
5150;DHT22;2593;52.466;13.436;2023-03-13T02:54:04;6.40;99.90
5150;DHT22;2593;52.466;13.436;2023-03-13T02:56:33;6.40;99.90
5150;DHT22;2593;52.466;13.436;2023-03-13T02:59:00;6.40;99.90
5150;DHT22;2593;52.466;13.436;2023-03-13T03:01:26;6.50;99.90
5150;DHT22;2593;52.466;13.436;2023-03-13T03:03:52;6.50;99.90
5150;DHT22;2593;52.466;13.436;2023-03-13T03:06:17;6.50;99.90
5150;DHT22;2593;52.466;13.436;2023-03-13T03:08:43;6.50;99.90
5150;DHT22;2593;52.466;13.436;2023-03-13T03:11:09;6.50;99.90
5150;DHT22;2593;52.466;13.436;2023-03-13T03:13:36;6.50;99.90
5150;DHT22;2593;52.466;13.436;2023-03-13T03:16:09;6.50;99.90
5150;DHT22;2593;52.466;13.436;2023-03-13T03:18:37;6.60;99.90
5150;DHT22;2593;52.466;13.436;2023-03-13T03:21:04;6.60;99.90
5150;DHT22;2593;52.466;13.436;2023-03-13T03:23:32;6.70;99.90
5150;DHT22;2593;52.466;13.436;2023-03-13T03:25:58;6.70;99.90
5150;DHT22;2593;52.466;13.436;2023-03-13T03:28:24;6.60;99.90
5150;DHT22;2593;52.466;13.436;2023-03-13T03:30:50;6.70;99.90
5150;DHT22;2593;52.466;13.436;2023-03-13T03:33:17;6.70;99.90
5150;DHT22;2593;52.466;13.436;2023-03-13T03:35:43;6.80;99.90
5150;DHT22;2593;52.466;13.436;2023-03-13T03:38:08;6.80;99.90
5150;DHT22;2593;52.466;13.436;2023-03-13T03:40:34;6.70;99.90
5150;DHT22;2593;52.466;13.436;2023-03-13T03:43:00;6.80;99.90
5150;DHT22;2593;52.466;13.436;2023-03-13T03:45:26;6.80;99.90
5150;DHT22;2593;52.466;13.436;2023-03-13T03:47:52;6.80;99.90
5150;DHT22;2593;52.466;13.436;2023-03-13T03:50:17;6.80;99.90
5150;DHT22;2593;52.466;13.436;2023-03-13T03:52:43;6.80;99.90
5150;DHT22;2593;52.466;13.436;2023-03-13T03:55:09;6.80;99.90
5150;DHT22;2593;52.466;13.436;2023-03-13T03:57:34;6.80;99.90
5150;DHT22;2593;52.466;13.436;2023-03-13T04:00:00;6.80;99.90
5150;DHT22;2593;52.466;13.436;2023-03-13T04:02:26;6.80;99.90
5150;DHT22;2593;52.466;13.436;2023-03-13T04:04:51;6.80;99.90
5150;DHT22;2593;52.466;13.436;2023-03-13T04:07:17;6.80;99.90
5150;DHT22;2593;52.466;13.436;2023-03-13T04:09:43;6.90;99.90
5150;DHT22;2593;52.466;13.436;2023-03-13T04:12:08;6.80;99.90
5150;DHT22;2593;52.466;13.436;2023-03-13T04:14:34;6.90;99.90
5150;DHT22;2593;52.466;13.436;2023-03-13T04:17:00;6.90;99.90
5150;DHT22;2593;52.466;13.436;2023-03-13T04:19:25;6.90;99.90
5150;DHT22;2593;52.466;13.436;2023-03-13T04:21:51;7.00;99.90
5150;DHT22;2593;52.466;13.436;2023-03-13T04:24:16;7.00;99.90
5150;DHT22;2593;52.466;13.436;2023-03-13T04:26:42;7.00;99.90
5150;DHT22;2593;52.466;13.436;2023-03-13T04:29:07;7.00;99.90
5150;DHT22;2593;52.466;13.436;2023-03-13T04:31:33;7.00;99.90
5150;DHT22;2593;52.466;13.436;2023-03-13T04:33:59;7.00;99.90
5150;DHT22;2593;52.466;13.436;2023-03-13T04:36:24;7.00;99.90
5150;DHT22;2593;52.466;13.436;2023-03-13T04:38:50;7.00;99.90
5150;DHT22;2593;52.466;13.436;2023-03-13T04:41:15;7.10;99.90
5150;DHT22;2593;52.466;13.436;2023-03-13T04:43:41;7.10;99.90
5150;DHT22;2593;52.466;13.436;2023-03-13T04:46:07;7.10;99.90
5150;DHT22;2593;52.466;13.436;2023-03-13T04:48:32;7.10;99.90
5150;DHT22;2593;52.466;13.436;2023-03-13T04:50:58;7.20;99.90
5150;DHT22;2593;52.466;13.436;2023-03-13T04:53:24;7.10;99.90
5150;DHT22;2593;52.466;13.436;2023-03-13T04:55:50;7.20;99.90
5150;DHT22;2593;52.466;13.436;2023-03-13T04:58:15;7.20;99.90
5150;DHT22;2593;52.466;13.436;2023-03-13T05:00:41;7.20;99.90
5150;DHT22;2593;52.466;13.436;2023-03-13T05:03:07;7.20;99.90
5150;DHT22;2593;52.466;13.436;2023-03-13T05:05:34;7.20;99.90
5150;DHT22;2593;52.466;13.436;2023-03-13T05:08:00;7.20;99.90
5150;DHT22;2593;52.466;13.436;2023-03-13T05:10:25;7.20;99.90
5150;DHT22;2593;52.466;13.436;2023-03-13T05:12:51;7.30;99.90
5150;DHT22;2593;52.466;13.436;2023-03-13T05:15:17;7.30;99.90
5150;DHT22;2593;52.466;13.436;2023-03-13T05:17:42;7.20;99.90
5150;DHT22;2593;52.466;13.436;2023-03-13T05:20:08;7.30;99.90
5150;DHT22;2593;52.466;13.436;2023-03-13T05:22:36;7.30;99.90
5150;DHT22;2593;52.466;13.436;2023-03-13T05:25:02;7.20;99.90
5150;DHT22;2593;52.466;13.436;2023-03-13T05:27:28;7.20;99.90
5150;DHT22;2593;52.466;13.436;2023-03-13T05:29:54;7.20;99.90
5150;DHT22;2593;52.466;13.436;2023-03-13T05:32:19;7.30;99.90
5150;DHT22;2593;52.466;13.436;2023-03-13T05:34:45;7.30;99.90
5150;DHT22;2593;52.466;13.436;2023-03-13T05:37:10;7.30;99.90
5150;DHT22;2593;52.466;13.436;2023-03-13T05:39:36;7.30;99.90
5150;DHT22;2593;52.466;13.436;2023-03-13T05:42:01;7.30;99.90
5150;DHT22;2593;52.466;13.436;2023-03-13T05:44:27;7.30;99.90
5150;DHT22;2593;52.466;13.436;2023-03-13T05:46:53;7.20;99.90
5150;DHT22;2593;52.466;13.436;2023-03-13T05:49:19;7.30;99.90
5150;DHT22;2593;52.466;13.436;2023-03-13T05:51:44;7.20;99.90
5150;DHT22;2593;52.466;13.436;2023-03-13T05:54:10;7.20;99.90
5150;DHT22;2593;52.466;13.436;2023-03-13T05:56:35;7.20;99.90
5150;DHT22;2593;52.466;13.436;2023-03-13T05:59:01;7.20;99.90
5150;DHT22;2593;52.466;13.436;2023-03-13T06:01:27;7.20;99.90
5150;DHT22;2593;52.466;13.436;2023-03-13T06:03:53;7.30;99.90
5150;DHT22;2593;52.466;13.436;2023-03-13T06:06:18;7.30;99.90
5150;DHT22;2593;52.466;13.436;2023-03-13T06:08:44;7.30;99.90
5150;DHT22;2593;52.466;13.436;2023-03-13T06:11:10;7.30;99.90
5150;DHT22;2593;52.466;13.436;2023-03-13T06:13:35;7.30;99.90
5150;DHT22;2593;52.466;13.436;2023-03-13T06:16:01;7.30;99.90
5150;DHT22;2593;52.466;13.436;2023-03-13T06:18:27;7.30;99.90
5150;DHT22;2593;52.466;13.436;2023-03-13T06:20:57;7.30;99.90
5150;DHT22;2593;52.466;13.436;2023-03-13T06:23:23;7.40;99.90
5150;DHT22;2593;52.466;13.436;2023-03-13T06:25:49;7.40;99.90
5150;DHT22;2593;52.466;13.436;2023-03-13T06:28:15;7.40;99.90
5150;DHT22;2593;52.466;13.436;2023-03-13T06:30:41;7.40;99.90
5150;DHT22;2593;52.466;13.436;2023-03-13T06:33:07;7.40;99.90
5150;DHT22;2593;52.466;13.436;2023-03-13T06:35:33;7.40;99.90
5150;DHT22;2593;52.466;13.436;2023-03-13T06:37:58;7.40;99.90
5150;DHT22;2593;52.466;13.436;2023-03-13T06:40:24;7.40;99.90
5150;DHT22;2593;52.466;13.436;2023-03-13T06:42:50;7.40;99.90
5150;DHT22;2593;52.466;13.436;2023-03-13T06:45:15;7.50;99.90
5150;DHT22;2593;52.466;13.436;2023-03-13T06:47:41;7.60;99.90
5150;DHT22;2593;52.466;13.436;2023-03-13T06:50:07;7.70;99.90
5150;DHT22;2593;52.466;13.436;2023-03-13T06:52:33;7.70;99.90
5150;DHT22;2593;52.466;13.436;2023-03-13T06:54:59;7.70;99.90
5150;DHT22;2593;52.466;13.436;2023-03-13T06:57:25;7.80;99.90
5150;DHT22;2593;52.466;13.436;2023-03-13T06:59:51;7.90;99.90
5150;DHT22;2593;52.466;13.436;2023-03-13T07:02:16;7.90;99.90
5150;DHT22;2593;52.466;13.436;2023-03-13T07:04:42;7.90;99.90
5150;DHT22;2593;52.466;13.436;2023-03-13T07:07:08;7.90;99.90
5150;DHT22;2593;52.466;13.436;2023-03-13T07:09:33;8.00;99.90
5150;DHT22;2593;52.466;13.436;2023-03-13T07:11:59;8.00;99.90
5150;DHT22;2593;52.466;13.436;2023-03-13T07:14:25;8.00;99.90
5150;DHT22;2593;52.466;13.436;2023-03-13T07:16:50;7.90;99.90
5150;DHT22;2593;52.466;13.436;2023-03-13T07:19:16;7.90;99.90
5150;DHT22;2593;52.466;13.436;2023-03-13T07:21:42;7.90;99.90
5150;DHT22;2593;52.466;13.436;2023-03-13T07:24:08;7.90;99.90
5150;DHT22;2593;52.466;13.436;2023-03-13T07:26:34;8.00;99.90
5150;DHT22;2593;52.466;13.436;2023-03-13T07:28:59;7.90;99.90
5150;DHT22;2593;52.466;13.436;2023-03-13T07:31:25;7.90;99.90
5150;DHT22;2593;52.466;13.436;2023-03-13T07:33:53;7.90;99.90
5150;DHT22;2593;52.466;13.436;2023-03-13T07:36:21;8.00;99.90
5150;DHT22;2593;52.466;13.436;2023-03-13T07:38:47;8.10;99.90
5150;DHT22;2593;52.466;13.436;2023-03-13T07:41:14;8.10;99.90
5150;DHT22;2593;52.466;13.436;2023-03-13T07:43:39;8.00;99.90
5150;DHT22;2593;52.466;13.436;2023-03-13T07:46:08;8.00;99.90
5150;DHT22;2593;52.466;13.436;2023-03-13T07:48:35;8.10;99.90
5150;DHT22;2593;52.466;13.436;2023-03-13T07:51:02;8.10;99.90
5150;DHT22;2593;52.466;13.436;2023-03-13T07:53:28;8.20;99.90
5150;DHT22;2593;52.466;13.436;2023-03-13T07:55:58;8.20;99.90
5150;DHT22;2593;52.466;13.436;2023-03-13T07:58:26;8.20;99.90
5150;DHT22;2593;52.466;13.436;2023-03-13T08:00:52;8.30;99.90
5150;DHT22;2593;52.466;13.436;2023-03-13T08:03:18;8.30;99.90
5150;DHT22;2593;52.466;13.436;2023-03-13T08:05:44;8.30;99.90
5150;DHT22;2593;52.466;13.436;2023-03-13T08:08:10;8.40;99.90
5150;DHT22;2593;52.466;13.436;2023-03-13T08:10:36;8.40;99.90
5150;DHT22;2593;52.466;13.436;2023-03-13T08:13:02;8.40;99.90
5150;DHT22;2593;52.466;13.436;2023-03-13T08:15:27;8.40;99.90
5150;DHT22;2593;52.466;13.436;2023-03-13T08:17:54;8.40;99.90
5150;DHT22;2593;52.466;13.436;2023-03-13T08:20:20;8.40;99.90
5150;DHT22;2593;52.466;13.436;2023-03-13T08:22:45;8.40;99.90
5150;DHT22;2593;52.466;13.436;2023-03-13T08:25:12;8.50;99.90
5150;DHT22;2593;52.466;13.436;2023-03-13T08:27:38;8.40;99.90
5150;DHT22;2593;52.466;13.436;2023-03-13T08:30:04;8.40;99.90
5150;DHT22;2593;52.466;13.436;2023-03-13T08:32:34;8.40;99.90
5150;DHT22;2593;52.466;13.436;2023-03-13T08:34:59;8.40;99.90
5150;DHT22;2593;52.466;13.436;2023-03-13T08:37:25;8.50;99.90
5150;DHT22;2593;52.466;13.436;2023-03-13T08:39:51;8.50;99.90
5150;DHT22;2593;52.466;13.436;2023-03-13T08:42:18;8.50;99.90
5150;DHT22;2593;52.466;13.436;2023-03-13T08:44:44;8.60;99.90
5150;DHT22;2593;52.466;13.436;2023-03-13T08:47:09;8.60;99.90
5150;DHT22;2593;52.466;13.436;2023-03-13T08:49:35;8.50;99.90
5150;DHT22;2593;52.466;13.436;2023-03-13T08:52:03;8.60;99.90
5150;DHT22;2593;52.466;13.436;2023-03-13T08:54:30;8.60;99.90
5150;DHT22;2593;52.466;13.436;2023-03-13T08:56:55;8.60;99.90
5150;DHT22;2593;52.466;13.436;2023-03-13T08:59:21;8.70;99.90
5150;DHT22;2593;52.466;13.436;2023-03-13T09:01:47;8.70;99.90
5150;DHT22;2593;52.466;13.436;2023-03-13T09:04:13;8.70;99.90
5150;DHT22;2593;52.466;13.436;2023-03-13T09:06:39;8.80;99.90
5150;DHT22;2593;52.466;13.436;2023-03-13T09:09:05;8.80;99.90
5150;DHT22;2593;52.466;13.436;2023-03-13T09:11:32;8.90;99.90
5150;DHT22;2593;52.466;13.436;2023-03-13T09:13:58;8.90;99.90
5150;DHT22;2593;52.466;13.436;2023-03-13T09:16:26;8.90;99.90
5150;DHT22;2593;52.466;13.436;2023-03-13T09:18:53;9.00;99.90
5150;DHT22;2593;52.466;13.436;2023-03-13T09:21:21;9.00;99.90
5150;DHT22;2593;52.466;13.436;2023-03-13T09:23:47;9.10;99.90
5150;DHT22;2593;52.466;13.436;2023-03-13T09:26:13;9.10;99.90
5150;DHT22;2593;52.466;13.436;2023-03-13T09:28:39;9.10;99.90
5150;DHT22;2593;52.466;13.436;2023-03-13T09:31:12;9.10;99.90
5150;DHT22;2593;52.466;13.436;2023-03-13T09:33:37;9.20;99.90
5150;DHT22;2593;52.466;13.436;2023-03-13T09:36:04;9.20;99.90
5150;DHT22;2593;52.466;13.436;2023-03-13T09:38:30;9.20;99.90
5150;DHT22;2593;52.466;13.436;2023-03-13T09:49:04;9.20;99.90
5150;DHT22;2593;52.466;13.436;2023-03-13T09:51:37;9.20;99.90
5150;DHT22;2593;52.466;13.436;2023-03-13T09:54:20;9.30;99.90
5150;DHT22;2593;52.466;13.436;2023-03-13T09:56:54;9.40;99.90
5150;DHT22;2593;52.466;13.436;2023-03-13T09:59:28;9.40;99.90
5150;DHT22;2593;52.466;13.436;2023-03-13T10:01:57;9.40;99.90
5150;DHT22;2593;52.466;13.436;2023-03-13T10:04:27;9.50;99.90
5150;DHT22;2593;52.466;13.436;2023-03-13T10:06:53;9.50;99.90
5150;DHT22;2593;52.466;13.436;2023-03-13T10:09:30;9.50;99.90
5150;DHT22;2593;52.466;13.436;2023-03-13T10:14:32;9.70;99.90
5150;DHT22;2593;52.466;13.436;2023-03-13T10:17:05;9.70;99.90
5150;DHT22;2593;52.466;13.436;2023-03-13T10:19:36;9.70;99.90
5150;DHT22;2593;52.466;13.436;2023-03-13T10:22:11;9.80;99.90
5150;DHT22;2593;52.466;13.436;2023-03-13T10:24:59;9.80;99.90
5150;DHT22;2593;52.466;13.436;2023-03-13T10:27:27;9.90;99.90
5150;DHT22;2593;52.466;13.436;2023-03-13T10:29:52;9.90;99.90
5150;DHT22;2593;52.466;13.436;2023-03-13T10:32:18;10.00;99.90
5150;DHT22;2593;52.466;13.436;2023-03-13T10:34:59;10.20;99.90
5150;DHT22;2593;52.466;13.436;2023-03-13T10:37:26;10.20;99.90
5150;DHT22;2593;52.466;13.436;2023-03-13T10:39:53;10.40;99.90
5150;DHT22;2593;52.466;13.436;2023-03-13T10:42:27;10.50;99.90
5150;DHT22;2593;52.466;13.436;2023-03-13T10:44:59;10.50;99.90
5150;DHT22;2593;52.466;13.436;2023-03-13T10:47:25;10.60;99.90
5150;DHT22;2593;52.466;13.436;2023-03-13T10:49:55;10.70;99.90
5150;DHT22;2593;52.466;13.436;2023-03-13T10:52:51;10.80;99.90
5150;DHT22;2593;52.466;13.436;2023-03-13T10:55:19;11.00;99.90
5150;DHT22;2593;52.466;13.436;2023-03-13T10:57:58;11.00;99.90
5150;DHT22;2593;52.466;13.436;2023-03-13T11:00:38;11.20;99.90
5150;DHT22;2593;52.466;13.436;2023-03-13T11:03:30;11.30;99.90
5150;DHT22;2593;52.466;13.436;2023-03-13T11:06:00;11.60;99.90
5150;DHT22;2593;52.466;13.436;2023-03-13T11:08:36;11.70;99.90
5150;DHT22;2593;52.466;13.436;2023-03-13T11:11:16;11.80;99.90
5150;DHT22;2593;52.466;13.436;2023-03-13T11:13:43;11.90;99.90
5150;DHT22;2593;52.466;13.436;2023-03-13T11:16:21;11.90;99.90
5150;DHT22;2593;52.466;13.436;2023-03-13T11:21:56;12.00;99.90
5150;DHT22;2593;52.466;13.436;2023-03-13T11:33:00;12.50;99.90
5150;DHT22;2593;52.466;13.436;2023-03-13T11:38:04;12.80;99.90
5150;DHT22;2593;52.466;13.436;2023-03-13T11:40:48;12.90;99.90
5150;DHT22;2593;52.466;13.436;2023-03-13T12:00:43;13.20;99.90
5150;DHT22;2593;52.466;13.436;2023-03-13T12:03:18;13.20;99.90
5150;DHT22;2593;52.466;13.436;2023-03-13T12:05:52;13.20;99.90
5150;DHT22;2593;52.466;13.436;2023-03-13T12:08:43;13.10;99.90
5150;DHT22;2593;52.466;13.436;2023-03-13T12:11:35;13.20;99.90
5150;DHT22;2593;52.466;13.436;2023-03-13T12:14:16;13.10;99.90
5150;DHT22;2593;52.466;13.436;2023-03-13T12:16:47;13.20;99.90
5150;DHT22;2593;52.466;13.436;2023-03-13T12:19:45;13.30;99.90
5150;DHT22;2593;52.466;13.436;2023-03-13T12:22:22;13.50;99.90
5150;DHT22;2593;52.466;13.436;2023-03-13T12:25:11;13.70;99.90
5150;DHT22;2593;52.466;13.436;2023-03-13T12:27:50;13.90;99.90
5150;DHT22;2593;52.466;13.436;2023-03-13T12:30:32;14.10;99.90
5150;DHT22;2593;52.466;13.436;2023-03-13T12:33:11;14.10;99.90
5150;DHT22;2593;52.466;13.436;2023-03-13T12:35:40;14.10;99.90
5150;DHT22;2593;52.466;13.436;2023-03-13T12:38:23;14.10;99.90
5150;DHT22;2593;52.466;13.436;2023-03-13T12:41:25;14.30;99.90
5150;DHT22;2593;52.466;13.436;2023-03-13T12:43:54;14.40;99.90
5150;DHT22;2593;52.466;13.436;2023-03-13T12:54:27;14.60;55.80
5150;DHT22;2593;52.466;13.436;2023-03-13T12:57:12;14.70;1.00
5150;DHT22;2593;52.466;13.436;2023-03-13T12:59:42;14.80;1.00
5150;DHT22;2593;52.466;13.436;2023-03-13T13:02:19;14.90;1.00
5150;DHT22;2593;52.466;13.436;2023-03-13T13:04:47;15.00;1.00
5150;DHT22;2593;52.466;13.436;2023-03-13T13:07:36;15.00;1.00
5150;DHT22;2593;52.466;13.436;2023-03-13T13:12:38;15.00;1.00
5150;DHT22;2593;52.466;13.436;2023-03-13T13:15:22;15.00;1.00
5150;DHT22;2593;52.466;13.436;2023-03-13T13:17:50;15.00;1.00
5150;DHT22;2593;52.466;13.436;2023-03-13T13:25:51;15.20;99.90
5150;DHT22;2593;52.466;13.436;2023-03-13T13:30:47;15.30;99.90
5150;DHT22;2593;52.466;13.436;2023-03-13T13:35:45;15.50;99.90
5150;DHT22;2593;52.466;13.436;2023-03-13T13:38:25;15.50;99.90
5150;DHT22;2593;52.466;13.436;2023-03-13T13:41:06;15.50;99.90
5150;DHT22;2593;52.466;13.436;2023-03-13T13:43:48;15.50;99.90
5150;DHT22;2593;52.466;13.436;2023-03-13T13:46:24;15.50;99.90
5150;DHT22;2593;52.466;13.436;2023-03-13T13:49:13;15.50;99.90
5150;DHT22;2593;52.466;13.436;2023-03-13T13:57:15;15.40;99.90
5150;DHT22;2593;52.466;13.436;2023-03-13T13:59:46;15.40;99.90
5150;DHT22;2593;52.466;13.436;2023-03-13T14:02:25;15.30;99.90
5150;DHT22;2593;52.466;13.436;2023-03-13T14:10:11;15.50;99.90
5150;DHT22;2593;52.466;13.436;2023-03-13T14:12:39;15.50;99.90
5150;DHT22;2593;52.466;13.436;2023-03-13T14:15:13;15.60;99.90
5150;DHT22;2593;52.466;13.436;2023-03-13T14:17:51;15.60;99.90
5150;DHT22;2593;52.466;13.436;2023-03-13T14:20:31;15.60;99.90
5150;DHT22;2593;52.466;13.436;2023-03-13T14:23:05;15.60;99.90
5150;DHT22;2593;52.466;13.436;2023-03-13T14:28:26;15.50;99.90
5150;DHT22;2593;52.466;13.436;2023-03-13T14:30:55;15.50;99.90
5150;DHT22;2593;52.466;13.436;2023-03-13T14:33:21;15.60;99.90
5150;DHT22;2593;52.466;13.436;2023-03-13T14:35:47;15.60;99.90
5150;DHT22;2593;52.466;13.436;2023-03-13T14:38:21;15.70;99.90
5150;DHT22;2593;52.466;13.436;2023-03-13T14:40:48;15.60;99.90
5150;DHT22;2593;52.466;13.436;2023-03-13T14:43:30;15.70;99.90
5150;DHT22;2593;52.466;13.436;2023-03-13T14:45:57;15.60;99.90
5150;DHT22;2593;52.466;13.436;2023-03-13T14:48:31;15.60;99.90
5150;DHT22;2593;52.466;13.436;2023-03-13T14:51:07;15.60;99.90
5150;DHT22;2593;52.466;13.436;2023-03-13T14:53:33;15.50;99.90
5150;DHT22;2593;52.466;13.436;2023-03-13T14:56:14;15.60;99.90
5150;DHT22;2593;52.466;13.436;2023-03-13T14:58:40;15.60;99.90
5150;DHT22;2593;52.466;13.436;2023-03-13T15:01:26;15.60;99.90
5150;DHT22;2593;52.466;13.436;2023-03-13T15:03:55;15.50;99.90
5150;DHT22;2593;52.466;13.436;2023-03-13T15:06:22;15.60;99.90
5150;DHT22;2593;52.466;13.436;2023-03-13T15:09:13;15.60;99.90
5150;DHT22;2593;52.466;13.436;2023-03-13T15:11:52;15.50;99.90
5150;DHT22;2593;52.466;13.436;2023-03-13T15:14:40;15.50;99.90
5150;DHT22;2593;52.466;13.436;2023-03-13T15:17:18;15.50;99.90
5150;DHT22;2593;52.466;13.436;2023-03-13T15:19:55;15.40;99.90
5150;DHT22;2593;52.466;13.436;2023-03-13T15:22:30;15.30;99.90
5150;DHT22;2593;52.466;13.436;2023-03-13T15:24:56;15.30;99.90
5150;DHT22;2593;52.466;13.436;2023-03-13T15:27:24;15.30;99.90
5150;DHT22;2593;52.466;13.436;2023-03-13T15:29:51;15.30;99.90
5150;DHT22;2593;52.466;13.436;2023-03-13T15:32:26;15.30;99.90
5150;DHT22;2593;52.466;13.436;2023-03-13T15:34:53;15.30;99.90
5150;DHT22;2593;52.466;13.436;2023-03-13T15:37:31;15.40;99.90
5150;DHT22;2593;52.466;13.436;2023-03-13T15:39:57;15.30;99.90
5150;DHT22;2593;52.466;13.436;2023-03-13T15:42:23;15.20;99.90
5150;DHT22;2593;52.466;13.436;2023-03-13T15:44:49;15.10;99.90
5150;DHT22;2593;52.466;13.436;2023-03-13T15:47:19;15.00;99.90
5150;DHT22;2593;52.466;13.436;2023-03-13T15:49:45;14.80;99.90
5150;DHT22;2593;52.466;13.436;2023-03-13T15:52:16;14.80;99.90
5150;DHT22;2593;52.466;13.436;2023-03-13T15:54:44;14.80;99.90
5150;DHT22;2593;52.466;13.436;2023-03-13T15:57:15;14.80;99.90
5150;DHT22;2593;52.466;13.436;2023-03-13T15:59:42;14.80;99.90
5150;DHT22;2593;52.466;13.436;2023-03-13T16:02:17;14.80;99.90
5150;DHT22;2593;52.466;13.436;2023-03-13T16:04:44;14.80;1.00
5150;DHT22;2593;52.466;13.436;2023-03-13T16:07:17;14.80;1.00
5150;DHT22;2593;52.466;13.436;2023-03-13T16:09:44;14.80;1.00
5150;DHT22;2593;52.466;13.436;2023-03-13T16:12:10;14.70;1.00
5150;DHT22;2593;52.466;13.436;2023-03-13T16:14:37;14.70;1.00
5150;DHT22;2593;52.466;13.436;2023-03-13T16:17:14;14.70;1.00
5150;DHT22;2593;52.466;13.436;2023-03-13T16:19:40;14.60;1.00
5150;DHT22;2593;52.466;13.436;2023-03-13T16:22:06;14.60;1.00
5150;DHT22;2593;52.466;13.436;2023-03-13T16:24:31;14.60;1.00
5150;DHT22;2593;52.466;13.436;2023-03-13T16:26:57;14.60;1.00
5150;DHT22;2593;52.466;13.436;2023-03-13T16:29:23;14.50;1.00
5150;DHT22;2593;52.466;13.436;2023-03-13T16:31:49;14.50;1.00
5150;DHT22;2593;52.466;13.436;2023-03-13T16:34:15;14.40;1.00
5150;DHT22;2593;52.466;13.436;2023-03-13T16:36:41;14.40;1.00
5150;DHT22;2593;52.466;13.436;2023-03-13T16:39:11;14.40;1.00
5150;DHT22;2593;52.466;13.436;2023-03-13T16:41:38;14.40;1.00
5150;DHT22;2593;52.466;13.436;2023-03-13T16:44:04;14.30;1.00
5150;DHT22;2593;52.466;13.436;2023-03-13T16:48:59;14.20;1.00
5150;DHT22;2593;52.466;13.436;2023-03-13T16:51:26;14.20;1.00
5150;DHT22;2593;52.466;13.436;2023-03-13T16:53:54;14.20;1.00
5150;DHT22;2593;52.466;13.436;2023-03-13T16:56:33;14.10;1.00
5150;DHT22;2593;52.466;13.436;2023-03-13T16:59:04;14.20;1.00
5150;DHT22;2593;52.466;13.436;2023-03-13T17:01:30;14.10;1.00
5150;DHT22;2593;52.466;13.436;2023-03-13T17:03:57;14.10;1.00
5150;DHT22;2593;52.466;13.436;2023-03-13T17:06:26;14.00;14.20
5150;DHT22;2593;52.466;13.436;2023-03-13T17:08:52;14.00;75.70
5150;DHT22;2593;52.466;13.436;2023-03-13T17:11:19;13.90;59.70
5150;DHT22;2593;52.466;13.436;2023-03-13T17:13:50;13.90;51.40
5150;DHT22;2593;52.466;13.436;2023-03-13T17:16:25;13.90;71.30
5150;DHT22;2593;52.466;13.436;2023-03-13T17:18:53;13.90;96.80
5150;DHT22;2593;52.466;13.436;2023-03-13T17:21:23;13.80;99.90
5150;DHT22;2593;52.466;13.436;2023-03-13T17:23:50;13.80;99.90
5150;DHT22;2593;52.466;13.436;2023-03-13T17:26:21;13.80;99.90
5150;DHT22;2593;52.466;13.436;2023-03-13T17:28:50;13.80;99.90
5150;DHT22;2593;52.466;13.436;2023-03-13T17:31:17;13.70;99.90
5150;DHT22;2593;52.466;13.436;2023-03-13T17:33:43;13.70;99.90